sensor_id;sensor_type;location;lat;lon;timestamp;pressure;altitude;pressure_sealevel;temperature;humidity
79617;BME280;69097;52.132;5.422;2023-11-21T00:01:04;101256.56;;;6.79;100.00
79617;BME280;69097;52.132;5.422;2023-11-21T00:03:31;101252.97;;;6.75;100.00
79617;BME280;69097;52.132;5.422;2023-11-21T00:05:58;101253.75;;;6.69;100.00
79617;BME280;69097;52.132;5.422;2023-11-21T00:08:24;101259.34;;;6.65;100.00
79617;BME280;69097;52.132;5.422;2023-11-21T00:10:51;101262.53;;;6.64;100.00
79617;BME280;69097;52.132;5.422;2023-11-21T00:13:18;101262.53;;;6.64;100.00
79617;BME280;69097;52.132;5.422;2023-11-21T00:15:44;101259.34;;;6.65;100.00
79617;BME280;69097;52.132;5.422;2023-11-21T00:18:11;101261.31;;;6.68;100.00
79617;BME280;69097;52.132;5.422;2023-11-21T00:20:37;101263.69;;;6.66;100.00
79617;BME280;69097;52.132;5.422;2023-11-21T00:23:04;101267.69;;;6.65;100.00
79617;BME280;69097;52.132;5.422;2023-11-21T00:25:30;101266.09;;;6.64;100.00
79617;BME280;69097;52.132;5.422;2023-11-21T00:27:58;101267.28;;;6.63;100.00
79617;BME280;69097;52.132;5.422;2023-11-21T00:30:24;101271.28;;;6.62;100.00
79617;BME280;69097;52.132;5.422;2023-11-21T00:32:51;101276.44;;;6.60;100.00
79617;BME280;69097;52.132;5.422;2023-11-21T00:35:18;101274.84;;;6.63;100.00
79617;BME280;69097;52.132;5.422;2023-11-21T00:37:44;101270.06;;;6.63;100.00
79617;BME280;69097;52.132;5.422;2023-11-21T00:40:12;101272.88;;;6.63;100.00
79617;BME280;69097;52.132;5.422;2023-11-21T00:42:38;101275.66;;;6.63;100.00
79617;BME280;69097;52.132;5.422;2023-11-21T00:45:06;101270.88;;;6.64;100.00
79617;BME280;69097;52.132;5.422;2023-11-21T00:47:32;101273.66;;;6.64;100.00
79617;BME280;69097;52.132;5.422;2023-11-21T00:49:59;101281.63;;;6.62;100.00
79617;BME280;69097;52.132;5.422;2023-11-21T00:52:26;101280.81;;;6.61;100.00
79617;BME280;69097;52.132;5.422;2023-11-21T00:54:52;101282.44;;;6.62;100.00
79617;BME280;69097;52.132;5.422;2023-11-21T00:57:18;101276.44;;;6.60;100.00
79617;BME280;69097;52.132;5.422;2023-11-21T00:59:45;101284.00;;;6.56;100.00
79617;BME280;69097;52.132;5.422;2023-11-21T01:02:12;101290.75;;;6.52;100.00
79617;BME280;69097;52.132;5.422;2023-11-21T01:04:39;101298.31;;;6.51;100.00
79617;BME280;69097;52.132;5.422;2023-11-21T01:07:05;101300.69;;;6.49;100.00
79617;BME280;69097;52.132;5.422;2023-11-21T01:09:32;101307.06;;;6.50;100.00
79617;BME280;69097;52.132;5.422;2023-11-21T01:11:58;101313.44;;;6.50;100.00
79617;BME280;69097;52.132;5.422;2023-11-21T01:14:26;101316.25;;;6.50;100.00
79617;BME280;69097;52.132;5.422;2023-11-21T01:16:53;101317.00;;;6.51;100.00
79617;BME280;69097;52.132;5.422;2023-11-21T01:19:20;101313.06;;;6.52;100.00
79617;BME280;69097;52.132;5.422;2023-11-21T01:21:46;101311.44;;;6.54;100.00
79617;BME280;69097;52.132;5.422;2023-11-21T01:24:14;101318.25;;;6.57;100.00
79617;BME280;69097;52.132;5.422;2023-11-21T01:26:40;101309.88;;;6.53;100.00
79617;BME280;69097;52.132;5.422;2023-11-21T01:29:07;101306.69;;;6.51;100.00
79617;BME280;69097;52.132;5.422;2023-11-21T01:31:33;101305.50;;;6.49;100.00
79617;BME280;69097;52.132;5.422;2023-11-21T01:34:00;101311.84;;;6.49;100.00
79617;BME280;69097;52.132;5.422;2023-11-21T01:36:33;101315.44;;;6.53;100.00
79617;BME280;69097;52.132;5.422;2023-11-21T01:39:00;101321.84;;;6.57;100.00
79617;BME280;69097;52.132;5.422;2023-11-21T01:41:27;101319.06;;;6.61;100.00
79617;BME280;69097;52.132;5.422;2023-11-21T01:43:55;101317.44;;;6.60;100.00
79617;BME280;69097;52.132;5.422;2023-11-21T01:46:22;101315.88;;;6.62;100.00
79617;BME280;69097;52.132;5.422;2023-11-21T01:48:49;101323.03;;;6.63;100.00
79617;BME280;69097;52.132;5.422;2023-11-21T01:51:16;101320.66;;;6.65;100.00
79617;BME280;69097;52.132;5.422;2023-11-21T01:53:43;101324.63;;;6.68;100.00
79617;BME280;69097;52.132;5.422;2023-11-21T01:56:10;101326.66;;;6.71;100.00
79617;BME280;69097;52.132;5.422;2023-11-21T01:58:37;101321.44;;;6.73;100.00
79617;BME280;69097;52.132;5.422;2023-11-21T02:01:04;101333.41;;;6.73;100.00
79617;BME280;69097;52.132;5.422;2023-11-21T02:03:31;101329.41;;;6.74;100.00
79617;BME280;69097;52.132;5.422;2023-11-21T02:05:58;101335.78;;;6.75;100.00
79617;BME280;69097;52.132;5.422;2023-11-21T02:08:24;101339.78;;;6.77;100.00
79617;BME280;69097;52.132;5.422;2023-11-21T02:10:51;101349.34;;;6.80;100.00
79617;BME280;69097;52.132;5.422;2023-11-21T02:13:18;101347.78;;;6.82;100.00
79617;BME280;69097;52.132;5.422;2023-11-21T02:15:44;101354.13;;;6.86;100.00
79617;BME280;69097;52.132;5.422;2023-11-21T02:18:11;101361.72;;;6.89;100.00
79617;BME280;69097;52.132;5.422;2023-11-21T02:20:37;101362.91;;;6.88;100.00
79617;BME280;69097;52.132;5.422;2023-11-21T02:23:05;101362.91;;;6.88;100.00
79617;BME280;69097;52.132;5.422;2023-11-21T02:25:32;101360.13;;;6.88;100.00
79617;BME280;69097;52.132;5.422;2023-11-21T02:28:02;101361.72;;;6.89;100.00
79617;BME280;69097;52.132;5.422;2023-11-21T02:30:29;101358.91;;;6.93;100.00
79617;BME280;69097;52.132;5.422;2023-11-21T02:32:57;101370.06;;;6.93;100.00
79617;BME280;69097;52.132;5.422;2023-11-21T02:35:24;101357.34;;;6.95;100.00
79617;BME280;69097;52.132;5.422;2023-11-21T02:37:53;101373.28;;;6.98;100.00
79617;BME280;69097;52.132;5.422;2023-11-21T02:40:20;101364.50;;;7.00;100.00
79617;BME280;69097;52.132;5.422;2023-11-21T02:42:47;101371.31;;;6.99;100.00
79617;BME280;69097;52.132;5.422;2023-11-21T02:45:15;101370.50;;;7.02;100.00
79617;BME280;69097;52.132;5.422;2023-11-21T02:47:45;101374.09;;;7.06;100.00
79617;BME280;69097;52.132;5.422;2023-11-21T02:50:11;101373.31;;;7.09;100.00
79617;BME280;69097;52.132;5.422;2023-11-21T02:52:38;101366.53;;;7.10;100.00
79617;BME280;69097;52.132;5.422;2023-11-21T02:55:06;101370.91;;;7.11;100.00
79617;BME280;69097;52.132;5.422;2023-11-21T02:57:36;101374.91;;;7.13;100.00
79617;BME280;69097;52.132;5.422;2023-11-21T03:00:03;101372.50;;;7.15;100.00
79617;BME280;69097;52.132;5.422;2023-11-21T03:02:29;101364.94;;;7.16;100.00
79617;BME280;69097;52.132;5.422;2023-11-21T03:04:56;101370.13;;;7.17;100.00
79617;BME280;69097;52.132;5.422;2023-11-21T03:07:23;101372.91;;;7.21;100.00
79617;BME280;69097;52.132;5.422;2023-11-21T03:09:49;101376.50;;;7.21;100.00
79617;BME280;69097;52.132;5.422;2023-11-21T03:12:16;101364.97;;;7.23;100.00
79617;BME280;69097;52.132;5.422;2023-11-21T03:14:43;101367.34;;;7.24;100.00
79617;BME280;69097;52.132;5.422;2023-11-21T03:17:09;101372.53;;;7.29;100.00
79617;BME280;69097;52.132;5.422;2023-11-21T03:19:36;101368.53;;;7.30;100.00
79617;BME280;69097;52.132;5.422;2023-11-21T03:22:02;101371.72;;;7.32;100.00
79617;BME280;69097;52.132;5.422;2023-11-21T03:24:30;101373.31;;;7.33;100.00
79617;BME280;69097;52.132;5.422;2023-11-21T03:26:57;101363.75;;;7.34;100.00
79617;BME280;69097;52.132;5.422;2023-11-21T03:29:24;101372.53;;;7.36;100.00
79617;BME280;69097;52.132;5.422;2023-11-21T03:31:50;101370.13;;;7.38;100.00
79617;BME280;69097;52.132;5.422;2023-11-21T03:34:27;101373.31;;;7.37;100.00
79617;BME280;69097;52.132;5.422;2023-11-21T03:36:54;101376.91;;;7.37;100.00
79617;BME280;69097;52.132;5.422;2023-11-21T03:39:21;101375.31;;;7.36;100.00
79617;BME280;69097;52.132;5.422;2023-11-21T03:41:48;101385.69;;;7.36;100.00
79617;BME280;69097;52.132;5.422;2023-11-21T03:44:16;101384.06;;;7.38;100.00
79617;BME280;69097;52.132;5.422;2023-11-21T03:46:44;101388.47;;;7.39;100.00
79617;BME280;69097;52.132;5.422;2023-11-21T03:49:10;101378.91;;;7.40;100.00
79617;BME280;69097;52.132;5.422;2023-11-21T03:51:37;101386.47;;;7.43;100.00
79617;BME280;69097;52.132;5.422;2023-11-21T03:54:03;101388.06;;;7.44;100.00
79617;BME280;69097;52.132;5.422;2023-11-21T03:56:30;101399.66;;;7.46;100.00
79617;BME280;69097;52.132;5.422;2023-11-21T03:58:57;101399.66;;;7.46;100.00
79617;BME280;69097;52.132;5.422;2023-11-21T04:01:24;101409.19;;;7.49;100.00
79617;BME280;69097;52.132;5.422;2023-11-21T04:03:52;101407.22;;;7.49;100.00
79617;BME280;69097;52.132;5.422;2023-11-21T04:06:18;101402.44;;;7.50;100.00
79617;BME280;69097;52.132;5.422;2023-11-21T04:08:45;101417.19;;;7.50;100.00
79617;BME280;69097;52.132;5.422;2023-11-21T04:11:12;101414.78;;;7.53;100.00
79617;BME280;69097;52.132;5.422;2023-11-21T04:13:39;101423.16;;;7.56;100.00
79617;BME280;69097;52.132;5.422;2023-11-21T04:16:07;101419.56;;;7.56;100.00
79617;BME280;69097;52.132;5.422;2023-11-21T04:18:36;101424.34;;;7.59;100.00
79617;BME280;69097;52.132;5.422;2023-11-21T04:21:05;101431.53;;;7.60;100.00
79617;BME280;69097;52.132;5.422;2023-11-21T04:23:31;101429.94;;;7.59;100.00
79617;BME280;69097;52.132;5.422;2023-11-21T04:25:58;101436.72;;;7.61;100.00
79617;BME280;69097;52.132;5.422;2023-11-21T04:28:26;101433.94;;;7.61;100.00
79617;BME280;69097;52.132;5.422;2023-11-21T04:30:53;101435.50;;;7.62;100.00
79617;BME280;69097;52.132;5.422;2023-11-21T04:33:19;101438.31;;;7.62;100.00
79617;BME280;69097;52.132;5.422;2023-11-21T04:35:46;101437.53;;;7.62;100.00
79617;BME280;69097;52.132;5.422;2023-11-21T04:38:12;101443.13;;;7.62;100.00
79617;BME280;69097;52.132;5.422;2023-11-21T04:40:40;101457.44;;;7.64;100.00
79617;BME280;69097;52.132;5.422;2023-11-21T04:43:07;101455.06;;;7.66;100.00
79617;BME280;69097;52.132;5.422;2023-11-21T04:45:34;101467.44;;;7.68;100.00
79617;BME280;69097;52.132;5.422;2023-11-21T04:48:00;101459.84;;;7.69;100.00
79617;BME280;69097;52.132;5.422;2023-11-21T04:50:27;101472.63;;;7.70;100.00
79617;BME280;69097;52.132;5.422;2023-11-21T04:52:53;101468.63;;;7.71;100.00
79617;BME280;69097;52.132;5.422;2023-11-21T04:55:20;101464.66;;;7.72;100.00
79617;BME280;69097;52.132;5.422;2023-11-21T04:57:47;101459.06;;;7.72;100.00
79617;BME280;69097;52.132;5.422;2023-11-21T05:00:15;101459.47;;;7.74;100.00
79617;BME280;69097;52.132;5.422;2023-11-21T05:02:42;101463.44;;;7.76;100.00
79617;BME280;69097;52.132;5.422;2023-11-21T05:05:11;101460.66;;;7.76;100.00
79617;BME280;69097;52.132;5.422;2023-11-21T05:07:39;101468.22;;;7.76;100.00
79617;BME280;69097;52.132;5.422;2023-11-21T05:10:06;101473.81;;;7.76;100.00
79617;BME280;69097;52.132;5.422;2023-11-21T05:12:39;101474.22;;;7.74;100.00
79617;BME280;69097;52.132;5.422;2023-11-21T05:15:07;101475.03;;;7.75;100.00
79617;BME280;69097;52.132;5.422;2023-11-21T05:17:37;101483.41;;;7.75;100.00
79617;BME280;69097;52.132;5.422;2023-11-21T05:20:06;101481.00;;;7.77;100.00
79617;BME280;69097;52.132;5.422;2023-11-21T05:22:35;101480.59;;;7.78;100.00
79617;BME280;69097;52.132;5.422;2023-11-21T05:25:03;101487.38;;;7.81;100.00
79617;BME280;69097;52.132;5.422;2023-11-21T05:27:30;101489.00;;;7.82;100.00
79617;BME280;69097;52.132;5.422;2023-11-21T05:29:57;101484.97;;;7.83;100.00
79617;BME280;69097;52.132;5.422;2023-11-21T05:32:24;101492.19;;;7.84;100.00
79617;BME280;69097;52.132;5.422;2023-11-21T05:34:51;101486.59;;;7.84;100.00
79617;BME280;69097;52.132;5.422;2023-11-21T05:37:18;101502.56;;;7.83;100.00
79617;BME280;69097;52.132;5.422;2023-11-21T05:39:44;101502.16;;;7.85;100.00
79617;BME280;69097;52.132;5.422;2023-11-21T05:42:11;101505.34;;;7.87;100.00
79617;BME280;69097;52.132;5.422;2023-11-21T05:44:41;101509.31;;;7.89;100.00
79617;BME280;69097;52.132;5.422;2023-11-21T05:47:08;101508.13;;;7.90;100.00
79617;BME280;69097;52.132;5.422;2023-11-21T05:49:35;101508.16;;;7.94;100.00
79617;BME280;69097;52.132;5.422;2023-11-21T05:52:02;101511.72;;;7.94;100.00
79617;BME280;69097;52.132;5.422;2023-11-21T05:54:28;101516.91;;;7.96;100.00
79617;BME280;69097;52.132;5.422;2023-11-21T05:56:55;101529.28;;;7.98;100.00
79617;BME280;69097;52.132;5.422;2023-11-21T05:59:21;101510.53;;;7.99;100.00
79617;BME280;69097;52.132;5.422;2023-11-21T06:01:49;101524.88;;;8.01;100.00
79617;BME280;69097;52.132;5.422;2023-11-21T06:04:15;101525.28;;;8.03;100.00
79617;BME280;69097;52.132;5.422;2023-11-21T06:06:42;101528.06;;;8.03;100.00
79617;BME280;69097;52.132;5.422;2023-11-21T06:09:08;101530.47;;;8.04;100.00
79617;BME280;69097;52.132;5.422;2023-11-21T06:11:35;101546.81;;;8.06;100.00
79617;BME280;69097;52.132;5.422;2023-11-21T06:14:02;101547.22;;;8.08;100.00
79617;BME280;69097;52.132;5.422;2023-11-21T06:16:28;101538.06;;;8.07;100.00
79617;BME280;69097;52.132;5.422;2023-11-21T06:18:56;101546.06;;;8.09;100.00
79617;BME280;69097;52.132;5.422;2023-11-21T06:21:23;101550.03;;;8.11;100.00
79617;BME280;69097;52.132;5.422;2023-11-21T06:23:49;101555.22;;;8.13;100.00
79617;BME280;69097;52.132;5.422;2023-11-21T06:26:19;101550.84;;;8.15;100.00
79617;BME280;69097;52.132;5.422;2023-11-21T06:28:46;101551.63;;;8.16;100.00
79617;BME280;69097;52.132;5.422;2023-11-21T06:31:13;101554.41;;;8.19;100.00
79617;BME280;69097;52.132;5.422;2023-11-21T06:33:40;101565.22;;;8.21;100.00
79617;BME280;69097;52.132;5.422;2023-11-21T06:36:08;101561.66;;;8.24;100.00
79617;BME280;69097;52.132;5.422;2023-11-21T06:38:34;101564.84;;;8.26;100.00
79617;BME280;69097;52.132;5.422;2023-11-21T06:41:01;101568.03;;;8.28;100.00
79617;BME280;69097;52.132;5.422;2023-11-21T06:43:32;101566.84;;;8.29;100.00
79617;BME280;69097;52.132;5.422;2023-11-21T06:45:59;101574.41;;;8.32;100.00
79617;BME280;69097;52.132;5.422;2023-11-21T06:48:25;101577.63;;;8.34;100.00
79617;BME280;69097;52.132;5.422;2023-11-21T06:50:52;101584.78;;;8.35;100.00
79617;BME280;69097;52.132;5.422;2023-11-21T06:53:18;101576.81;;;8.37;100.00
79617;BME280;69097;52.132;5.422;2023-11-21T06:55:45;101582.81;;;8.39;100.00
79617;BME280;69097;52.132;5.422;2023-11-21T06:58:12;101583.56;;;8.43;100.00
79617;BME280;69097;52.132;5.422;2023-11-21T07:00:40;101583.22;;;8.44;100.00
79617;BME280;69097;52.132;5.422;2023-11-21T07:03:07;101591.97;;;8.46;100.00
79617;BME280;69097;52.132;5.422;2023-11-21T07:05:34;101597.16;;;8.48;100.00
79617;BME280;69097;52.132;5.422;2023-11-21T07:08:00;101604.75;;;8.51;100.00
79617;BME280;69097;52.132;5.422;2023-11-21T07:10:30;101601.56;;;8.52;100.00
79617;BME280;69097;52.132;5.422;2023-11-21T07:12:57;101607.94;;;8.56;100.00
79617;BME280;69097;52.132;5.422;2023-11-21T07:15:24;101610.31;;;8.58;100.00
79617;BME280;69097;52.132;5.422;2023-11-21T07:17:52;101610.31;;;8.61;100.00
79617;BME280;69097;52.132;5.422;2023-11-21T07:20:20;101623.13;;;8.62;100.00
79617;BME280;69097;52.132;5.422;2023-11-21T07:22:47;101625.53;;;8.64;100.00
79617;BME280;69097;52.132;5.422;2023-11-21T07:25:14;101630.31;;;8.67;100.00
79617;BME280;69097;52.132;5.422;2023-11-21T07:27:41;101636.31;;;8.69;100.00
79617;BME280;69097;52.132;5.422;2023-11-21T07:30:08;101625.50;;;8.71;100.00
79617;BME280;69097;52.132;5.422;2023-11-21T07:32:36;101641.50;;;8.74;100.00
79617;BME280;69097;52.132;5.422;2023-11-21T07:35:03;101642.66;;;8.77;100.00
79617;BME280;69097;52.132;5.422;2023-11-21T07:37:30;101632.69;;;8.79;100.00
79617;BME280;69097;52.132;5.422;2023-11-21T07:39:57;101627.09;;;8.83;100.00
79617;BME280;69097;52.132;5.422;2023-11-21T07:42:24;101638.28;;;8.83;100.00
79617;BME280;69097;52.132;5.422;2023-11-21T07:44:52;101644.66;;;8.87;100.00
79617;BME280;69097;52.132;5.422;2023-11-21T07:47:19;101647.84;;;8.89;100.00
79617;BME280;69097;52.132;5.422;2023-11-21T07:49:46;101655.06;;;8.90;100.00
79617;BME280;69097;52.132;5.422;2023-11-21T07:52:13;101651.84;;;8.91;100.00
79617;BME280;69097;52.132;5.422;2023-11-21T07:54:42;101660.25;;;8.91;100.00
79617;BME280;69097;52.132;5.422;2023-11-21T07:57:09;101656.63;;;8.94;100.00
79617;BME280;69097;52.132;5.422;2023-11-21T07:59:40;101663.44;;;8.97;100.00
79617;BME280;69097;52.132;5.422;2023-11-21T08:02:09;101666.63;;;8.99;100.00
79617;BME280;69097;52.132;5.422;2023-11-21T08:04:37;101675.00;;;9.02;100.00
79617;BME280;69097;52.132;5.422;2023-11-21T08:07:03;101678.59;;;9.06;100.00
79617;BME280;69097;52.132;5.422;2023-11-21T08:09:31;101679.00;;;9.08;100.00
79617;BME280;69097;52.132;5.422;2023-11-21T08:11:57;101693.38;;;9.10;100.00
79617;BME280;69097;52.132;5.422;2023-11-21T08:14:26;101695.00;;;9.15;100.00
79617;BME280;69097;52.132;5.422;2023-11-21T08:16:53;101693.78;;;9.19;100.00
79617;BME280;69097;52.132;5.422;2023-11-21T08:19:24;101712.16;;;9.24;100.00
79617;BME280;69097;52.132;5.422;2023-11-21T08:21:53;101709.75;;;9.26;100.00
79617;BME280;69097;52.132;5.422;2023-11-21T08:24:21;101718.56;;;9.28;100.00
79617;BME280;69097;52.132;5.422;2023-11-21T08:26:48;101725.34;;;9.30;100.00
79617;BME280;69097;52.132;5.422;2023-11-21T08:29:14;101730.97;;;9.30;100.00
79617;BME280;69097;52.132;5.422;2023-11-21T08:31:41;101722.94;;;9.32;100.00
79617;BME280;69097;52.132;5.422;2023-11-21T08:34:08;101734.13;;;9.32;100.00
79617;BME280;69097;52.132;5.422;2023-11-21T08:36:35;101738.53;;;9.33;100.00
79617;BME280;69097;52.132;5.422;2023-11-21T08:39:01;101745.72;;;9.34;100.00
79617;BME280;69097;52.132;5.422;2023-11-21T08:41:28;101756.53;;;9.36;100.00
79617;BME280;69097;52.132;5.422;2023-11-21T08:43:54;101758.53;;;9.35;100.00
79617;BME280;69097;52.132;5.422;2023-11-21T08:46:22;101760.94;;;9.37;100.00
79617;BME280;69097;52.132;5.422;2023-11-21T08:48:51;101766.13;;;9.38;100.00
79617;BME280;69097;52.132;5.422;2023-11-21T08:51:18;101765.31;;;9.41;100.00
79617;BME280;69097;52.132;5.422;2023-11-21T08:53:45;101772.50;;;9.42;100.00
79617;BME280;69097;52.132;5.422;2023-11-21T08:56:14;101766.91;;;9.42;100.00
79617;BME280;69097;52.132;5.422;2023-11-21T08:58:41;101775.72;;;9.44;100.00
79617;BME280;69097;52.132;5.422;2023-11-21T09:01:07;101760.53;;;9.45;100.00
79617;BME280;69097;52.132;5.422;2023-11-21T09:03:34;101768.91;;;9.49;100.00
79617;BME280;69097;52.132;5.422;2023-11-21T09:06:01;101770.91;;;9.52;100.00
79617;BME280;69097;52.132;5.422;2023-11-21T09:08:27;101772.88;;;9.58;100.00
79617;BME280;69097;52.132;5.422;2023-11-21T09:10:55;101791.28;;;9.66;100.00
79617;BME280;69097;52.132;5.422;2023-11-21T09:13:22;101794.47;;;9.68;100.00
79617;BME280;69097;52.132;5.422;2023-11-21T09:15:51;101806.47;;;9.72;100.00
79617;BME280;69097;52.132;5.422;2023-11-21T09:18:18;101808.06;;;9.73;100.00
79617;BME280;69097;52.132;5.422;2023-11-21T09:20:45;101808.47;;;9.72;100.00
79617;BME280;69097;52.132;5.422;2023-11-21T09:23:12;101807.25;;;9.69;100.00
79617;BME280;69097;52.132;5.422;2023-11-21T09:25:38;101806.47;;;9.69;100.00
79617;BME280;69097;52.132;5.422;2023-11-21T09:28:05;101810.06;;;9.69;100.00
79617;BME280;69097;52.132;5.422;2023-11-21T09:30:35;101822.88;;;9.70;100.00
79617;BME280;69097;52.132;5.422;2023-11-21T09:33:02;101827.69;;;9.70;100.00
79617;BME280;69097;52.132;5.422;2023-11-21T09:35:29;101829.69;;;9.69;100.00
79617;BME280;69097;52.132;5.422;2023-11-21T09:37:55;101840.88;;;9.69;100.00
79617;BME280;69097;52.132;5.422;2023-11-21T09:40:22;101842.91;;;9.69;100.00
79617;BME280;69097;52.132;5.422;2023-11-21T09:42:51;101851.31;;;9.69;100.00
79617;BME280;69097;52.132;5.422;2023-11-21T09:45:32;101851.72;;;9.67;100.00
79617;BME280;69097;52.132;5.422;2023-11-21T09:48:01;101851.72;;;9.64;100.00
79617;BME280;69097;52.132;5.422;2023-11-21T09:50:28;101855.69;;;9.63;100.00
79617;BME280;69097;52.132;5.422;2023-11-21T09:55:25;101864.91;;;9.56;100.00
79617;BME280;69097;52.132;5.422;2023-11-21T09:57:54;101870.53;;;9.56;100.00
79617;BME280;69097;52.132;5.422;2023-11-21T10:00:22;101872.91;;;9.54;100.00
79617;BME280;69097;52.132;5.422;2023-11-21T10:02:50;101874.53;;;9.55;100.00
79617;BME280;69097;52.132;5.422;2023-11-21T10:05:19;101878.91;;;9.53;100.00
79617;BME280;69097;52.132;5.422;2023-11-21T10:07:46;101889.31;;;9.52;100.00
79617;BME280;69097;52.132;5.422;2023-11-21T10:10:13;101888.13;;;9.50;100.00
79617;BME280;69097;52.132;5.422;2023-11-21T10:12:47;101883.34;;;9.50;100.00
79617;BME280;69097;52.132;5.422;2023-11-21T10:15:16;101895.72;;;9.49;100.00
79617;BME280;69097;52.132;5.422;2023-11-21T10:17:44;101904.13;;;9.49;100.00
79617;BME280;69097;52.132;5.422;2023-11-21T10:20:12;101902.94;;;9.50;100.00
79617;BME280;69097;52.132;5.422;2023-11-21T10:22:40;101909.72;;;9.49;100.00
79617;BME280;69097;52.132;5.422;2023-11-21T10:25:12;101921.75;;;9.53;100.00
79617;BME280;69097;52.132;5.422;2023-11-21T10:27:41;101913.75;;;9.55;100.00
79617;BME280;69097;52.132;5.422;2023-11-21T10:30:09;101927.75;;;9.55;100.00
79617;BME280;69097;52.132;5.422;2023-11-21T10:32:39;101923.34;;;9.58;100.00
79617;BME280;69097;52.132;5.422;2023-11-21T10:35:09;101924.53;;;9.60;100.00
79617;BME280;69097;52.132;5.422;2023-11-21T10:37:37;101924.53;;;9.60;100.00
79617;BME280;69097;52.132;5.422;2023-11-21T10:40:07;101941.34;;;9.57;100.00
79617;BME280;69097;52.132;5.422;2023-11-21T10:42:35;101940.94;;;9.55;100.00
79617;BME280;69097;52.132;5.422;2023-11-21T10:45:04;101950.94;;;9.52;100.00
79617;BME280;69097;52.132;5.422;2023-11-21T10:47:35;101959.75;;;9.51;100.00
79617;BME280;69097;52.132;5.422;2023-11-21T10:50:04;101967.75;;;9.49;100.00
79617;BME280;69097;52.132;5.422;2023-11-21T10:52:30;101966.53;;;9.46;100.00
79617;BME280;69097;52.132;5.422;2023-11-21T10:54:57;101969.75;;;9.48;100.00
79617;BME280;69097;52.132;5.422;2023-11-21T10:57:25;101976.53;;;9.47;100.00
79617;BME280;69097;52.132;5.422;2023-11-21T10:59:54;101980.53;;;9.46;100.00
79617;BME280;69097;52.132;5.422;2023-11-21T11:02:24;101985.34;;;9.46;100.00
79617;BME280;69097;52.132;5.422;2023-11-21T11:04:55;101981.75;;;9.45;100.00
79617;BME280;69097;52.132;5.422;2023-11-21T11:07:27;101983.75;;;9.45;100.00
79617;BME280;69097;52.132;5.422;2023-11-21T11:09:54;101986.53;;;9.45;100.00
79617;BME280;69097;52.132;5.422;2023-11-21T11:12:21;101982.13;;;9.47;100.00
79617;BME280;69097;52.132;5.422;2023-11-21T11:14:51;101979.75;;;9.49;100.00
79617;BME280;69097;52.132;5.422;2023-11-21T11:17:18;101980.16;;;9.51;100.00
79617;BME280;69097;52.132;5.422;2023-11-21T11:19:47;101979.75;;;9.49;100.00
79617;BME280;69097;52.132;5.422;2023-11-21T11:22:34;101990.16;;;9.49;100.00
79617;BME280;69097;52.132;5.422;2023-11-21T11:38:32;102000.56;;;9.48;100.00
79617;BME280;69097;52.132;5.422;2023-11-21T11:41:02;101996.56;;;9.53;100.00
79617;BME280;69097;52.132;5.422;2023-11-21T11:43:32;101996.97;;;9.55;100.00
79617;BME280;69097;52.132;5.422;2023-11-21T11:46:03;102015.75;;;9.54;100.00
79617;BME280;69097;52.132;5.422;2023-11-21T11:48:35;102008.97;;;9.55;100.00
79617;BME280;69097;52.132;5.422;2023-11-21T11:51:06;102018.16;;;9.56;100.00
79617;BME280;69097;52.132;5.422;2023-11-21T11:53:37;102022.97;;;9.55;100.00
79617;BME280;69097;52.132;5.422;2023-11-21T11:56:34;102019.78;;;9.57;100.00
79617;BME280;69097;52.132;5.422;2023-11-21T11:59:03;102027.78;;;9.58;100.00
79617;BME280;69097;52.132;5.422;2023-11-21T12:01:33;102028.59;;;9.62;100.00
79617;BME280;69097;52.132;5.422;2023-11-21T12:06:52;102039.41;;;9.60;100.00
79617;BME280;69097;52.132;5.422;2023-11-21T12:09:22;102042.97;;;9.61;100.00
79617;BME280;69097;52.132;5.422;2023-11-21T12:11:50;102041.00;;;9.61;100.00
79617;BME280;69097;52.132;5.422;2023-11-21T12:14:17;102042.19;;;9.60;100.00
79617;BME280;69097;52.132;5.422;2023-11-21T12:16:44;102042.19;;;9.60;100.00
79617;BME280;69097;52.132;5.422;2023-11-21T12:19:11;102051.78;;;9.59;100.00
79617;BME280;69097;52.132;5.422;2023-11-21T12:21:38;102050.59;;;9.60;100.00
79617;BME280;69097;52.132;5.422;2023-11-21T12:24:07;102055.00;;;9.61;100.00
79617;BME280;69097;52.132;5.422;2023-11-21T12:26:35;102061.41;;;9.58;100.00
79617;BME280;69097;52.132;5.422;2023-11-21T12:29:08;102055.38;;;9.56;100.00
79617;BME280;69097;52.132;5.422;2023-11-21T12:31:37;102062.59;;;9.54;100.00
79617;BME280;69097;52.132;5.422;2023-11-21T12:34:05;102052.56;;;9.53;100.00
79617;BME280;69097;52.132;5.422;2023-11-21T12:36:34;102049.34;;;9.47;100.00
79617;BME280;69097;52.132;5.422;2023-11-21T12:39:02;102066.16;;;9.47;100.00
79617;BME280;69097;52.132;5.422;2023-11-21T12:41:29;102057.38;;;9.49;100.00
79617;BME280;69097;52.132;5.422;2023-11-21T12:43:57;102060.56;;;9.47;100.00
79617;BME280;69097;52.132;5.422;2023-11-21T12:46:24;102068.56;;;9.45;100.00
79617;BME280;69097;52.132;5.422;2023-11-21T12:48:57;102071.38;;;9.45;100.00
79617;BME280;69097;52.132;5.422;2023-11-21T12:51:27;102076.56;;;9.47;100.00
79617;BME280;69097;52.132;5.422;2023-11-21T12:53:55;102081.38;;;9.46;100.00
79617;BME280;69097;52.132;5.422;2023-11-21T12:56:22;102075.38;;;9.48;100.00
79617;BME280;69097;52.132;5.422;2023-11-21T12:58:54;102086.97;;;9.46;100.00
79617;BME280;69097;52.132;5.422;2023-11-21T13:01:25;102089.34;;;9.44;100.00
79617;BME280;69097;52.132;5.422;2023-11-21T13:03:59;102092.16;;;9.44;100.00
79617;BME280;69097;52.132;5.422;2023-11-21T13:06:26;102093.78;;;9.45;100.00
79617;BME280;69097;52.132;5.422;2023-11-21T13:08:54;102095.00;;;9.51;100.00
79617;BME280;69097;52.132;5.422;2023-11-21T13:11:23;102101.78;;;9.57;100.00